메인 페이지
METAR-TAF:

METAR-TAF

공항 :

포트워스, 텍사스, 미국

위도: 32-49-31N, 경도: 097-21-51W, 고도: 216m

현재 날씨관측

예보는 45분 전, 18:53시(UTC)에 발표되었습니다.
동남동7kt
온도 24°C
습도 31%
기압 1013 hPa
시정: 16.1km
맑음

METAR: KFTW 191853Z 11007KT 10SM CLR 24/06 A2992 RMK AO2 SLP126 T02390056

시각: 13:38 (19:38 UTC)

예보

예보는 2 시간 5분 전, 17:33시(UTC)에 발표되었습니다.
예보 대상 시간: 19일 18시부터 20일 18시까지 (UTC)
남남동7kt
시정: 10km
고도 25000ft 상공 구름 조금
20일 1100시부터 (UTC)
남남동10kt
시정: 10km
고도 2500ft 상공 흐림
20일 1300시부터 (UTC)
남남동11kt
시정: 10km
고도 1900ft 상공 흐림

TAF: KFTW 191733Z 1918/2018 15007KT P6SM FEW250 FM201100 16010KT P6SM OVC025 FM201300 16011KT P6SM OVC019

4,000개 이상의 공항 관측 자료 및 예보 (METAR 및 TAF 보고).

지도상에서 검색 가능한 기상관측소가 노란 점과 빨간 점으로 표시되어 있습니다.

기상관측소 명을 보려면 표시 위로 마우스를 이동하세요.

날씨 관측과 예보를 보려면 클릭하세요.

지도 변경 : 확대하려면 엑스 표시가 있는 녹색 버튼, 축소하려면 빼기 표시가 있는 녹색 버튼, 다음 페이지의 지도를 보려면 녹색 화살표를 클릭하세요.


METAR-TAF: